sensor_id;sensor_type;location;lat;lon;timestamp;P1;durP1;ratioP1;P2;durP2;ratioP2
21825;SDS011;11075;47.944;11.776;2022-12-18T00:01:23;67.37;;;24.40;;
21825;SDS011;11075;47.944;11.776;2022-12-18T00:03:52;60.90;;;22.97;;
21825;SDS011;11075;47.944;11.776;2022-12-18T00:06:22;77.50;;;23.50;;
21825;SDS011;11075;47.944;11.776;2022-12-18T00:08:50;69.30;;;22.93;;
21825;SDS011;11075;47.944;11.776;2022-12-18T00:11:18;65.67;;;21.00;;
21825;SDS011;11075;47.944;11.776;2022-12-18T00:13:48;66.13;;;22.43;;
21825;SDS011;11075;47.944;11.776;2022-12-18T00:16:16;67.37;;;22.93;;
21825;SDS011;11075;47.944;11.776;2022-12-18T00:18:47;57.07;;;21.13;;
21825;SDS011;11075;47.944;11.776;2022-12-18T00:21:14;68.57;;;21.77;;
21825;SDS011;11075;47.944;11.776;2022-12-18T00:23:44;76.53;;;24.60;;
21825;SDS011;11075;47.944;11.776;2022-12-18T00:26:22;69.30;;;22.67;;
21825;SDS011;11075;47.944;11.776;2022-12-18T00:28:58;77.73;;;23.40;;
21825;SDS011;11075;47.944;11.776;2022-12-18T00:31:25;68.13;;;23.50;;
21825;SDS011;11075;47.944;11.776;2022-12-18T00:33:53;68.43;;;20.23;;
21825;SDS011;11075;47.944;11.776;2022-12-18T00:36:23;67.17;;;22.10;;
21825;SDS011;11075;47.944;11.776;2022-12-18T00:38:53;68.63;;;22.97;;
21825;SDS011;11075;47.944;11.776;2022-12-18T00:41:21;77.73;;;22.20;;
21825;SDS011;11075;47.944;11.776;2022-12-18T00:44:09;75.13;;;23.13;;
21825;SDS011;11075;47.944;11.776;2022-12-18T00:46:38;74.00;;;23.60;;
21825;SDS011;11075;47.944;11.776;2022-12-18T00:49:06;75.80;;;24.23;;
21825;SDS011;11075;47.944;11.776;2022-12-18T00:51:33;68.60;;;21.50;;
21825;SDS011;11075;47.944;11.776;2022-12-18T00:54:00;78.50;;;24.30;;
21825;SDS011;11075;47.944;11.776;2022-12-18T00:56:27;75.33;;;21.77;;
21825;SDS011;11075;47.944;11.776;2022-12-18T00:58:54;71.07;;;22.97;;
21825;SDS011;11075;47.944;11.776;2022-12-18T01:01:21;77.23;;;22.67;;
21825;SDS011;11075;47.944;11.776;2022-12-18T01:03:48;78.07;;;25.97;;
21825;SDS011;11075;47.944;11.776;2022-12-18T01:06:15;66.93;;;21.20;;
21825;SDS011;11075;47.944;11.776;2022-12-18T01:08:43;68.77;;;21.43;;
21825;SDS011;11075;47.944;11.776;2022-12-18T01:11:13;65.83;;;22.00;;
21825;SDS011;11075;47.944;11.776;2022-12-18T01:13:41;72.10;;;23.20;;
21825;SDS011;11075;47.944;11.776;2022-12-18T01:16:10;53.83;;;18.30;;
21825;SDS011;11075;47.944;11.776;2022-12-18T01:18:38;61.50;;;20.77;;
21825;SDS011;11075;47.944;11.776;2022-12-18T01:21:06;61.57;;;20.93;;
21825;SDS011;11075;47.944;11.776;2022-12-18T01:23:36;55.00;;;18.47;;
21825;SDS011;11075;47.944;11.776;2022-12-18T01:26:04;74.43;;;23.63;;
21825;SDS011;11075;47.944;11.776;2022-12-18T01:28:35;72.27;;;22.93;;
21825;SDS011;11075;47.944;11.776;2022-12-18T01:33:38;76.73;;;24.33;;
21825;SDS011;11075;47.944;11.776;2022-12-18T01:36:05;75.37;;;24.83;;
21825;SDS011;11075;47.944;11.776;2022-12-18T01:38:33;79.10;;;25.40;;
21825;SDS011;11075;47.944;11.776;2022-12-18T01:41:00;72.43;;;24.33;;
21825;SDS011;11075;47.944;11.776;2022-12-18T01:43:48;67.07;;;22.33;;
21825;SDS011;11075;47.944;11.776;2022-12-18T01:46:21;74.20;;;24.50;;
21825;SDS011;11075;47.944;11.776;2022-12-18T01:48:52;72.63;;;22.70;;
21825;SDS011;11075;47.944;11.776;2022-12-18T01:51:23;66.63;;;24.17;;
21825;SDS011;11075;47.944;11.776;2022-12-18T01:53:50;59.77;;;21.23;;
21825;SDS011;11075;47.944;11.776;2022-12-18T01:56:18;68.20;;;23.57;;
21825;SDS011;11075;47.944;11.776;2022-12-18T01:58:52;71.33;;;22.60;;
21825;SDS011;11075;47.944;11.776;2022-12-18T02:01:24;64.47;;;22.37;;
21825;SDS011;11075;47.944;11.776;2022-12-18T02:03:53;71.97;;;23.73;;
21825;SDS011;11075;47.944;11.776;2022-12-18T02:06:23;56.30;;;20.20;;
21825;SDS011;11075;47.944;11.776;2022-12-18T02:09:13;71.00;;;21.27;;
21825;SDS011;11075;47.944;11.776;2022-12-18T02:12:11;69.17;;;23.13;;
21825;SDS011;11075;47.944;11.776;2022-12-18T02:15:13;64.90;;;21.33;;
21825;SDS011;11075;47.944;11.776;2022-12-18T02:17:51;61.53;;;18.97;;
21825;SDS011;11075;47.944;11.776;2022-12-18T02:20:28;69.70;;;24.03;;
21825;SDS011;11075;47.944;11.776;2022-12-18T02:23:04;61.77;;;20.57;;
21825;SDS011;11075;47.944;11.776;2022-12-18T02:28:17;70.50;;;20.43;;
21825;SDS011;11075;47.944;11.776;2022-12-18T02:30:52;58.60;;;20.07;;
21825;SDS011;11075;47.944;11.776;2022-12-18T02:33:20;48.23;;;15.10;;
21825;SDS011;11075;47.944;11.776;2022-12-18T02:35:50;59.03;;;20.27;;
21825;SDS011;11075;47.944;11.776;2022-12-18T02:38:20;70.30;;;22.60;;
21825;SDS011;11075;47.944;11.776;2022-12-18T02:40:50;53.33;;;19.23;;
21825;SDS011;11075;47.944;11.776;2022-12-18T02:43:20;38.93;;;14.30;;
21825;SDS011;11075;47.944;11.776;2022-12-18T02:45:49;67.67;;;22.03;;
21825;SDS011;11075;47.944;11.776;2022-12-18T02:48:31;59.23;;;21.17;;
21825;SDS011;11075;47.944;11.776;2022-12-18T02:54:41;65.13;;;22.07;;
21825;SDS011;11075;47.944;11.776;2022-12-18T02:56:57;67.67;;;21.67;;
21825;SDS011;11075;47.944;11.776;2022-12-18T02:59:37;57.53;;;21.50;;
21825;SDS011;11075;47.944;11.776;2022-12-18T03:07:50;59.33;;;19.83;;
21825;SDS011;11075;47.944;11.776;2022-12-18T03:10:29;62.00;;;21.77;;
21825;SDS011;11075;47.944;11.776;2022-12-18T03:13:06;49.73;;;19.07;;
21825;SDS011;11075;47.944;11.776;2022-12-18T03:15:44;45.37;;;16.17;;
21825;SDS011;11075;47.944;11.776;2022-12-18T03:18:18;64.73;;;21.13;;
21825;SDS011;11075;47.944;11.776;2022-12-18T03:20:51;63.70;;;21.00;;
21825;SDS011;11075;47.944;11.776;2022-12-18T03:23:25;68.10;;;23.13;;
21825;SDS011;11075;47.944;11.776;2022-12-18T03:25:57;62.53;;;21.57;;
21825;SDS011;11075;47.944;11.776;2022-12-18T03:28:37;75.87;;;24.43;;
21825;SDS011;11075;47.944;11.776;2022-12-18T03:31:09;64.77;;;22.90;;
21825;SDS011;11075;47.944;11.776;2022-12-18T03:33:45;63.83;;;22.03;;
21825;SDS011;11075;47.944;11.776;2022-12-18T03:36:13;60.97;;;22.27;;
21825;SDS011;11075;47.944;11.776;2022-12-18T03:38:41;62.10;;;21.53;;
21825;SDS011;11075;47.944;11.776;2022-12-18T03:52:14;68.83;;;22.10;;
21825;SDS011;11075;47.944;11.776;2022-12-18T03:54:48;57.20;;;20.93;;
21825;SDS011;11075;47.944;11.776;2022-12-18T03:57:17;69.57;;;23.07;;
21825;SDS011;11075;47.944;11.776;2022-12-18T03:59:49;67.03;;;22.27;;
21825;SDS011;11075;47.944;11.776;2022-12-18T04:02:23;57.50;;;22.67;;
21825;SDS011;11075;47.944;11.776;2022-12-18T04:04:53;63.07;;;21.53;;
21825;SDS011;11075;47.944;11.776;2022-12-18T04:07:24;59.53;;;20.67;;
21825;SDS011;11075;47.944;11.776;2022-12-18T04:09:52;56.63;;;19.50;;
21825;SDS011;11075;47.944;11.776;2022-12-18T04:12:24;57.50;;;21.73;;
21825;SDS011;11075;47.944;11.776;2022-12-18T04:14:54;49.67;;;19.77;;
21825;SDS011;11075;47.944;11.776;2022-12-18T04:17:22;62.87;;;23.10;;
21825;SDS011;11075;47.944;11.776;2022-12-18T04:19:50;52.73;;;21.20;;
21825;SDS011;11075;47.944;11.776;2022-12-18T04:22:17;57.70;;;20.53;;
21825;SDS011;11075;47.944;11.776;2022-12-18T04:24:47;47.50;;;17.50;;
21825;SDS011;11075;47.944;11.776;2022-12-18T04:27:21;63.60;;;22.60;;
21825;SDS011;11075;47.944;11.776;2022-12-18T04:29:49;67.50;;;21.77;;
21825;SDS011;11075;47.944;11.776;2022-12-18T04:32:17;60.43;;;23.23;;
21825;SDS011;11075;47.944;11.776;2022-12-18T04:34:44;68.93;;;22.27;;
21825;SDS011;11075;47.944;11.776;2022-12-18T04:37:11;61.77;;;22.17;;
21825;SDS011;11075;47.944;11.776;2022-12-18T04:39:38;61.30;;;21.73;;
21825;SDS011;11075;47.944;11.776;2022-12-18T04:42:12;63.73;;;21.57;;
21825;SDS011;11075;47.944;11.776;2022-12-18T04:44:38;51.13;;;21.10;;
21825;SDS011;11075;47.944;11.776;2022-12-18T04:47:05;61.83;;;22.97;;
21825;SDS011;11075;47.944;11.776;2022-12-18T04:49:32;59.03;;;21.23;;
21825;SDS011;11075;47.944;11.776;2022-12-18T04:51:58;53.73;;;19.33;;
21825;SDS011;11075;47.944;11.776;2022-12-18T04:54:25;56.43;;;20.20;;
21825;SDS011;11075;47.944;11.776;2022-12-18T04:56:52;47.93;;;19.23;;
21825;SDS011;11075;47.944;11.776;2022-12-18T04:59:20;54.37;;;20.70;;
21825;SDS011;11075;47.944;11.776;2022-12-18T05:01:47;57.03;;;19.50;;
21825;SDS011;11075;47.944;11.776;2022-12-18T05:04:14;54.93;;;19.53;;
21825;SDS011;11075;47.944;11.776;2022-12-18T05:06:41;62.83;;;21.93;;
21825;SDS011;11075;47.944;11.776;2022-12-18T05:09:08;48.73;;;18.97;;
21825;SDS011;11075;47.944;11.776;2022-12-18T05:11:35;34.60;;;15.53;;
21825;SDS011;11075;47.944;11.776;2022-12-18T05:14:02;59.03;;;20.63;;
21825;SDS011;11075;47.944;11.776;2022-12-18T05:16:29;57.13;;;18.80;;
21825;SDS011;11075;47.944;11.776;2022-12-18T05:18:56;53.27;;;19.07;;
21825;SDS011;11075;47.944;11.776;2022-12-18T05:21:23;51.80;;;19.63;;
21825;SDS011;11075;47.944;11.776;2022-12-18T05:23:50;47.17;;;17.33;;
21825;SDS011;11075;47.944;11.776;2022-12-18T05:26:17;48.07;;;18.63;;
21825;SDS011;11075;47.944;11.776;2022-12-18T05:28:44;43.67;;;17.07;;
21825;SDS011;11075;47.944;11.776;2022-12-18T05:31:12;56.60;;;19.90;;
21825;SDS011;11075;47.944;11.776;2022-12-18T05:33:39;45.43;;;17.57;;
21825;SDS011;11075;47.944;11.776;2022-12-18T05:36:08;54.40;;;18.87;;
21825;SDS011;11075;47.944;11.776;2022-12-18T05:38:36;54.83;;;18.03;;
21825;SDS011;11075;47.944;11.776;2022-12-18T05:41:04;44.47;;;17.37;;
21825;SDS011;11075;47.944;11.776;2022-12-18T05:43:33;51.33;;;18.63;;
21825;SDS011;11075;47.944;11.776;2022-12-18T05:46:05;49.00;;;17.40;;
21825;SDS011;11075;47.944;11.776;2022-12-18T05:48:38;46.40;;;18.20;;
21825;SDS011;11075;47.944;11.776;2022-12-18T05:51:07;51.20;;;19.47;;
21825;SDS011;11075;47.944;11.776;2022-12-18T05:53:35;51.60;;;18.07;;
21825;SDS011;11075;47.944;11.776;2022-12-18T05:56:04;51.27;;;18.90;;
21825;SDS011;11075;47.944;11.776;2022-12-18T05:58:33;46.90;;;15.37;;
21825;SDS011;11075;47.944;11.776;2022-12-18T06:01:08;46.90;;;17.07;;
21825;SDS011;11075;47.944;11.776;2022-12-18T06:03:37;43.03;;;14.70;;
21825;SDS011;11075;47.944;11.776;2022-12-18T06:06:16;38.13;;;14.13;;
21825;SDS011;11075;47.944;11.776;2022-12-18T06:08:45;43.80;;;15.50;;
21825;SDS011;11075;47.944;11.776;2022-12-18T06:11:13;36.27;;;14.23;;
21825;SDS011;11075;47.944;11.776;2022-12-18T06:13:43;36.23;;;12.77;;
21825;SDS011;11075;47.944;11.776;2022-12-18T06:16:10;53.50;;;17.50;;
21825;SDS011;11075;47.944;11.776;2022-12-18T06:18:38;51.07;;;18.93;;
21825;SDS011;11075;47.944;11.776;2022-12-18T06:21:05;46.00;;;17.37;;
21825;SDS011;11075;47.944;11.776;2022-12-18T06:23:31;47.33;;;13.73;;
21825;SDS011;11075;47.944;11.776;2022-12-18T06:26:03;53.80;;;18.70;;
21825;SDS011;11075;47.944;11.776;2022-12-18T06:28:31;46.60;;;17.90;;
21825;SDS011;11075;47.944;11.776;2022-12-18T06:30:58;47.23;;;16.63;;
21825;SDS011;11075;47.944;11.776;2022-12-18T06:33:28;49.33;;;17.07;;
21825;SDS011;11075;47.944;11.776;2022-12-18T06:35:59;49.97;;;16.43;;
21825;SDS011;11075;47.944;11.776;2022-12-18T06:38:28;57.27;;;18.50;;
21825;SDS011;11075;47.944;11.776;2022-12-18T06:40:55;29.57;;;12.53;;
21825;SDS011;11075;47.944;11.776;2022-12-18T06:43:22;9.73;;;4.73;;
21825;SDS011;11075;47.944;11.776;2022-12-18T06:45:48;45.47;;;17.60;;
21825;SDS011;11075;47.944;11.776;2022-12-18T06:48:19;56.80;;;19.23;;
21825;SDS011;11075;47.944;11.776;2022-12-18T06:50:46;47.67;;;16.97;;
21825;SDS011;11075;47.944;11.776;2022-12-18T06:53:13;48.77;;;17.53;;
21825;SDS011;11075;47.944;11.776;2022-12-18T06:55:40;43.00;;;14.97;;
21825;SDS011;11075;47.944;11.776;2022-12-18T06:58:08;46.97;;;16.60;;
21825;SDS011;11075;47.944;11.776;2022-12-18T07:00:36;47.40;;;18.60;;
21825;SDS011;11075;47.944;11.776;2022-12-18T07:03:03;37.80;;;13.57;;
21825;SDS011;11075;47.944;11.776;2022-12-18T07:05:30;50.73;;;17.57;;
21825;SDS011;11075;47.944;11.776;2022-12-18T07:07:57;30.87;;;10.93;;
21825;SDS011;11075;47.944;11.776;2022-12-18T07:10:25;42.50;;;16.60;;
21825;SDS011;11075;47.944;11.776;2022-12-18T07:12:52;47.23;;;16.57;;
21825;SDS011;11075;47.944;11.776;2022-12-18T07:15:19;53.23;;;19.40;;
21825;SDS011;11075;47.944;11.776;2022-12-18T07:17:45;51.07;;;18.37;;
21825;SDS011;11075;47.944;11.776;2022-12-18T07:20:12;48.30;;;17.70;;
21825;SDS011;11075;47.944;11.776;2022-12-18T07:22:40;49.23;;;16.20;;
21825;SDS011;11075;47.944;11.776;2022-12-18T07:25:07;45.67;;;16.60;;
21825;SDS011;11075;47.944;11.776;2022-12-18T07:27:33;44.33;;;13.30;;
21825;SDS011;11075;47.944;11.776;2022-12-18T07:30:00;43.87;;;15.77;;
21825;SDS011;11075;47.944;11.776;2022-12-18T07:32:27;52.07;;;16.60;;
21825;SDS011;11075;47.944;11.776;2022-12-18T07:34:54;42.13;;;16.17;;
21825;SDS011;11075;47.944;11.776;2022-12-18T07:37:20;43.43;;;15.13;;
21825;SDS011;11075;47.944;11.776;2022-12-18T07:39:47;51.43;;;16.67;;
21825;SDS011;11075;47.944;11.776;2022-12-18T07:42:15;37.80;;;13.53;;
21825;SDS011;11075;47.944;11.776;2022-12-18T07:45:00;44.83;;;15.53;;
21825;SDS011;11075;47.944;11.776;2022-12-18T07:47:33;46.87;;;16.17;;
21825;SDS011;11075;47.944;11.776;2022-12-18T07:50:02;46.67;;;15.63;;
21825;SDS011;11075;47.944;11.776;2022-12-18T07:52:29;40.73;;;13.07;;
21825;SDS011;11075;47.944;11.776;2022-12-18T07:54:56;42.80;;;16.47;;
21825;SDS011;11075;47.944;11.776;2022-12-18T07:57:23;45.53;;;15.77;;
21825;SDS011;11075;47.944;11.776;2022-12-18T08:00:10;45.33;;;17.07;;
21825;SDS011;11075;47.944;11.776;2022-12-18T08:02:39;40.37;;;13.03;;
21825;SDS011;11075;47.944;11.776;2022-12-18T08:05:07;36.33;;;15.17;;
21825;SDS011;11075;47.944;11.776;2022-12-18T08:07:34;38.43;;;13.43;;
21825;SDS011;11075;47.944;11.776;2022-12-18T08:10:01;43.33;;;15.00;;
21825;SDS011;11075;47.944;11.776;2022-12-18T08:12:29;42.93;;;15.80;;
21825;SDS011;11075;47.944;11.776;2022-12-18T08:14:56;41.13;;;16.00;;
21825;SDS011;11075;47.944;11.776;2022-12-18T08:17:22;37.37;;;15.13;;
21825;SDS011;11075;47.944;11.776;2022-12-18T08:19:49;37.33;;;15.30;;
21825;SDS011;11075;47.944;11.776;2022-12-18T08:22:16;41.43;;;15.53;;
21825;SDS011;11075;47.944;11.776;2022-12-18T08:24:43;43.47;;;14.27;;
21825;SDS011;11075;47.944;11.776;2022-12-18T08:27:10;38.93;;;13.93;;
21825;SDS011;11075;47.944;11.776;2022-12-18T08:29:55;41.77;;;14.90;;
21825;SDS011;11075;47.944;11.776;2022-12-18T08:32:22;40.03;;;14.30;;
21825;SDS011;11075;47.944;11.776;2022-12-18T08:34:50;42.47;;;13.73;;
21825;SDS011;11075;47.944;11.776;2022-12-18T08:37:16;36.17;;;13.07;;
21825;SDS011;11075;47.944;11.776;2022-12-18T08:39:44;39.33;;;14.10;;
21825;SDS011;11075;47.944;11.776;2022-12-18T08:42:11;41.63;;;16.03;;
21825;SDS011;11075;47.944;11.776;2022-12-18T08:44:59;43.37;;;14.47;;
21825;SDS011;11075;47.944;11.776;2022-12-18T08:47:26;34.60;;;13.00;;
21825;SDS011;11075;47.944;11.776;2022-12-18T08:49:54;35.47;;;13.43;;
21825;SDS011;11075;47.944;11.776;2022-12-18T08:52:21;38.80;;;15.17;;
21825;SDS011;11075;47.944;11.776;2022-12-18T08:54:48;39.40;;;14.90;;
21825;SDS011;11075;47.944;11.776;2022-12-18T08:57:15;33.83;;;14.40;;
21825;SDS011;11075;47.944;11.776;2022-12-18T08:59:42;34.77;;;14.20;;
21825;SDS011;11075;47.944;11.776;2022-12-18T09:02:10;41.10;;;15.27;;
21825;SDS011;11075;47.944;11.776;2022-12-18T09:04:38;37.57;;;13.57;;
21825;SDS011;11075;47.944;11.776;2022-12-18T09:07:06;43.07;;;16.43;;
21825;SDS011;11075;47.944;11.776;2022-12-18T09:09:33;41.40;;;14.00;;
21825;SDS011;11075;47.944;11.776;2022-12-18T09:12:00;40.57;;;15.77;;
21825;SDS011;11075;47.944;11.776;2022-12-18T09:14:27;34.60;;;13.70;;
21825;SDS011;11075;47.944;11.776;2022-12-18T09:16:55;32.27;;;11.83;;
21825;SDS011;11075;47.944;11.776;2022-12-18T09:19:22;45.80;;;14.77;;
21825;SDS011;11075;47.944;11.776;2022-12-18T09:21:49;37.00;;;14.03;;
21825;SDS011;11075;47.944;11.776;2022-12-18T09:24:16;39.77;;;13.57;;
21825;SDS011;11075;47.944;11.776;2022-12-18T09:26:43;35.50;;;12.40;;
21825;SDS011;11075;47.944;11.776;2022-12-18T09:29:13;39.57;;;14.33;;
21825;SDS011;11075;47.944;11.776;2022-12-18T09:31:44;41.10;;;14.73;;
21825;SDS011;11075;47.944;11.776;2022-12-18T09:34:12;35.20;;;14.57;;
21825;SDS011;11075;47.944;11.776;2022-12-18T09:36:40;33.73;;;13.73;;
21825;SDS011;11075;47.944;11.776;2022-12-18T09:39:06;36.10;;;13.53;;
21825;SDS011;11075;47.944;11.776;2022-12-18T09:49:44;40.47;;;14.87;;
21825;SDS011;11075;47.944;11.776;2022-12-18T09:54:51;32.97;;;13.50;;
21825;SDS011;11075;47.944;11.776;2022-12-18T09:57:25;35.80;;;14.63;;
21825;SDS011;11075;47.944;11.776;2022-12-18T09:59:55;38.63;;;14.23;;
21825;SDS011;11075;47.944;11.776;2022-12-18T10:02:26;34.80;;;13.10;;
21825;SDS011;11075;47.944;11.776;2022-12-18T10:05:06;33.30;;;13.20;;
21825;SDS011;11075;47.944;11.776;2022-12-18T10:07:41;33.83;;;12.60;;
21825;SDS011;11075;47.944;11.776;2022-12-18T10:10:36;33.37;;;14.10;;
21825;SDS011;11075;47.944;11.776;2022-12-18T10:16:06;34.03;;;14.23;;
21825;SDS011;11075;47.944;11.776;2022-12-18T10:21:34;35.70;;;13.90;;
21825;SDS011;11075;47.944;11.776;2022-12-18T10:27:18;32.17;;;12.57;;
21825;SDS011;11075;47.944;11.776;2022-12-18T10:29:48;35.73;;;13.57;;
21825;SDS011;11075;47.944;11.776;2022-12-18T10:32:17;33.03;;;14.10;;
21825;SDS011;11075;47.944;11.776;2022-12-18T10:34:46;32.20;;;13.33;;
21825;SDS011;11075;47.944;11.776;2022-12-18T10:37:18;33.27;;;14.10;;
21825;SDS011;11075;47.944;11.776;2022-12-18T10:40:04;34.27;;;13.53;;
21825;SDS011;11075;47.944;11.776;2022-12-18T10:42:34;37.73;;;14.87;;
21825;SDS011;11075;47.944;11.776;2022-12-18T10:45:08;32.43;;;13.77;;
21825;SDS011;11075;47.944;11.776;2022-12-18T10:47:47;29.77;;;11.80;;
21825;SDS011;11075;47.944;11.776;2022-12-18T10:50:18;40.17;;;14.00;;
21825;SDS011;11075;47.944;11.776;2022-12-18T10:52:58;31.33;;;12.80;;
21825;SDS011;11075;47.944;11.776;2022-12-18T10:55:34;29.93;;;13.27;;
21825;SDS011;11075;47.944;11.776;2022-12-18T11:01:06;31.17;;;13.80;;
21825;SDS011;11075;47.944;11.776;2022-12-18T11:06:16;32.37;;;12.60;;
21825;SDS011;11075;47.944;11.776;2022-12-18T11:09:02;34.97;;;14.23;;
21825;SDS011;11075;47.944;11.776;2022-12-18T11:11:39;36.07;;;13.57;;
21825;SDS011;11075;47.944;11.776;2022-12-18T11:14:10;31.57;;;12.50;;
21825;SDS011;11075;47.944;11.776;2022-12-18T11:16:44;31.47;;;13.63;;
21825;SDS011;11075;47.944;11.776;2022-12-18T11:19:37;39.63;;;15.90;;
21825;SDS011;11075;47.944;11.776;2022-12-18T11:22:20;40.47;;;15.73;;
21825;SDS011;11075;47.944;11.776;2022-12-18T11:28:02;41.10;;;15.73;;
21825;SDS011;11075;47.944;11.776;2022-12-18T11:30:36;36.87;;;14.77;;
21825;SDS011;11075;47.944;11.776;2022-12-18T11:33:18;33.80;;;14.67;;
21825;SDS011;11075;47.944;11.776;2022-12-18T11:40:51;31.10;;;12.47;;
21825;SDS011;11075;47.944;11.776;2022-12-18T11:43:58;37.50;;;14.57;;
21825;SDS011;11075;47.944;11.776;2022-12-18T11:46:39;30.17;;;13.67;;
21825;SDS011;11075;47.944;11.776;2022-12-18T11:49:17;50.20;;;16.73;;
21825;SDS011;11075;47.944;11.776;2022-12-18T11:52:09;53.80;;;17.10;;
21825;SDS011;11075;47.944;11.776;2022-12-18T11:54:52;37.13;;;14.13;;
21825;SDS011;11075;47.944;11.776;2022-12-18T11:57:36;39.40;;;14.67;;
21825;SDS011;11075;47.944;11.776;2022-12-18T12:00:19;31.00;;;12.60;;
21825;SDS011;11075;47.944;11.776;2022-12-18T12:14:13;32.67;;;12.57;;
21825;SDS011;11075;47.944;11.776;2022-12-18T12:16:55;33.07;;;12.63;;
21825;SDS011;11075;47.944;11.776;2022-12-18T12:22:35;35.27;;;15.57;;
21825;SDS011;11075;47.944;11.776;2022-12-18T12:33:40;34.47;;;13.20;;
21825;SDS011;11075;47.944;11.776;2022-12-18T12:39:23;31.47;;;13.30;;
21825;SDS011;11075;47.944;11.776;2022-12-18T12:42:04;30.07;;;12.27;;
21825;SDS011;11075;47.944;11.776;2022-12-18T12:44:54;31.10;;;13.27;;
21825;SDS011;11075;47.944;11.776;2022-12-18T12:47:25;36.10;;;13.73;;
21825;SDS011;11075;47.944;11.776;2022-12-18T12:49:58;35.30;;;13.47;;
21825;SDS011;11075;47.944;11.776;2022-12-18T12:52:36;36.60;;;12.80;;
21825;SDS011;11075;47.944;11.776;2022-12-18T12:55:13;32.90;;;13.77;;
21825;SDS011;11075;47.944;11.776;2022-12-18T12:57:51;30.17;;;13.67;;
21825;SDS011;11075;47.944;11.776;2022-12-18T13:00:21;34.80;;;13.00;;
21825;SDS011;11075;47.944;11.776;2022-12-18T13:08:27;28.97;;;12.47;;
21825;SDS011;11075;47.944;11.776;2022-12-18T13:11:02;31.03;;;12.50;;
21825;SDS011;11075;47.944;11.776;2022-12-18T13:13:49;33.33;;;13.33;;
21825;SDS011;11075;47.944;11.776;2022-12-18T13:16:18;34.07;;;13.50;;
21825;SDS011;11075;47.944;11.776;2022-12-18T13:18:51;30.00;;;12.43;;
21825;SDS011;11075;47.944;11.776;2022-12-18T13:21:21;29.87;;;12.67;;
21825;SDS011;11075;47.944;11.776;2022-12-18T13:23:54;34.87;;;13.10;;
21825;SDS011;11075;47.944;11.776;2022-12-18T13:28:56;29.90;;;12.60;;
21825;SDS011;11075;47.944;11.776;2022-12-18T13:36:54;32.73;;;12.10;;
21825;SDS011;11075;47.944;11.776;2022-12-18T13:44:33;32.87;;;14.63;;
21825;SDS011;11075;47.944;11.776;2022-12-18T13:50:01;23.40;;;10.80;;
21825;SDS011;11075;47.944;11.776;2022-12-18T13:52:37;34.53;;;12.77;;
21825;SDS011;11075;47.944;11.776;2022-12-18T13:55:07;34.33;;;14.17;;
21825;SDS011;11075;47.944;11.776;2022-12-18T13:57:47;34.47;;;14.30;;
21825;SDS011;11075;47.944;11.776;2022-12-18T14:00:27;40.07;;;15.07;;
21825;SDS011;11075;47.944;11.776;2022-12-18T14:02:56;38.93;;;15.17;;
21825;SDS011;11075;47.944;11.776;2022-12-18T14:07:59;32.97;;;14.13;;
21825;SDS011;11075;47.944;11.776;2022-12-18T14:10:32;34.50;;;14.97;;
21825;SDS011;11075;47.944;11.776;2022-12-18T14:13:21;28.87;;;12.30;;
21825;SDS011;11075;47.944;11.776;2022-12-18T14:15:49;31.50;;;13.63;;
21825;SDS011;11075;47.944;11.776;2022-12-18T14:18:21;26.90;;;11.30;;
21825;SDS011;11075;47.944;11.776;2022-12-18T14:20:50;30.83;;;12.43;;
21825;SDS011;11075;47.944;11.776;2022-12-18T14:23:28;29.73;;;12.13;;
21825;SDS011;11075;47.944;11.776;2022-12-18T14:25:55;31.40;;;12.20;;
21825;SDS011;11075;47.944;11.776;2022-12-18T14:28:30;30.00;;;11.93;;
21825;SDS011;11075;47.944;11.776;2022-12-18T14:30:58;29.93;;;13.07;;
21825;SDS011;11075;47.944;11.776;2022-12-18T14:33:26;28.80;;;11.97;;
21825;SDS011;11075;47.944;11.776;2022-12-18T14:35:58;29.30;;;11.67;;
21825;SDS011;11075;47.944;11.776;2022-12-18T14:38:34;32.07;;;13.23;;
21825;SDS011;11075;47.944;11.776;2022-12-18T14:41:09;35.00;;;14.47;;
21825;SDS011;11075;47.944;11.776;2022-12-18T14:43:39;42.83;;;16.47;;
21825;SDS011;11075;47.944;11.776;2022-12-18T14:48:54;35.00;;;13.03;;
21825;SDS011;11075;47.944;11.776;2022-12-18T14:51:32;36.90;;;14.07;;
21825;SDS011;11075;47.944;11.776;2022-12-18T14:54:01;34.70;;;14.47;;
21825;SDS011;11075;47.944;11.776;2022-12-18T14:56:34;36.77;;;15.57;;
21825;SDS011;11075;47.944;11.776;2022-12-18T14:59:13;35.67;;;14.90;;
21825;SDS011;11075;47.944;11.776;2022-12-18T15:02:10;39.60;;;16.03;;
21825;SDS011;11075;47.944;11.776;2022-12-18T15:04:45;24.80;;;9.97;;
21825;SDS011;11075;47.944;11.776;2022-12-18T15:09:44;23.27;;;8.43;;
21825;SDS011;11075;47.944;11.776;2022-12-18T15:12:34;34.33;;;13.57;;
21825;SDS011;11075;47.944;11.776;2022-12-18T15:15:04;32.17;;;13.33;;
21825;SDS011;11075;47.944;11.776;2022-12-18T15:18:27;33.47;;;12.67;;
21825;SDS011;11075;47.944;11.776;2022-12-18T15:20:54;38.57;;;14.50;;
21825;SDS011;11075;47.944;11.776;2022-12-18T15:26:04;32.80;;;12.67;;
21825;SDS011;11075;47.944;11.776;2022-12-18T15:33:44;37.37;;;14.73;;
21825;SDS011;11075;47.944;11.776;2022-12-18T15:36:19;36.70;;;14.03;;
21825;SDS011;11075;47.944;11.776;2022-12-18T15:38:55;36.17;;;14.37;;
21825;SDS011;11075;47.944;11.776;2022-12-18T15:41:32;39.60;;;14.87;;
21825;SDS011;11075;47.944;11.776;2022-12-18T15:44:01;41.93;;;15.07;;
21825;SDS011;11075;47.944;11.776;2022-12-18T15:46:31;42.87;;;15.10;;
21825;SDS011;11075;47.944;11.776;2022-12-18T15:48:59;36.97;;;15.23;;
21825;SDS011;11075;47.944;11.776;2022-12-18T15:51:29;38.53;;;13.90;;
21825;SDS011;11075;47.944;11.776;2022-12-18T15:54:03;35.07;;;14.43;;
21825;SDS011;11075;47.944;11.776;2022-12-18T15:56:35;31.90;;;12.47;;
21825;SDS011;11075;47.944;11.776;2022-12-18T15:59:22;34.70;;;14.27;;
21825;SDS011;11075;47.944;11.776;2022-12-18T16:01:49;39.83;;;14.87;;
21825;SDS011;11075;47.944;11.776;2022-12-18T16:04:19;41.53;;;15.63;;
21825;SDS011;11075;47.944;11.776;2022-12-18T16:06:48;39.53;;;13.97;;
21825;SDS011;11075;47.944;11.776;2022-12-18T16:09:36;36.53;;;14.20;;
21825;SDS011;11075;47.944;11.776;2022-12-18T16:12:04;43.17;;;15.30;;
21825;SDS011;11075;47.944;11.776;2022-12-18T16:14:32;57.73;;;22.07;;
21825;SDS011;11075;47.944;11.776;2022-12-18T16:17:00;52.27;;;21.73;;
21825;SDS011;11075;47.944;11.776;2022-12-18T16:19:30;51.50;;;21.20;;
21825;SDS011;11075;47.944;11.776;2022-12-18T16:21:57;63.27;;;22.43;;
21825;SDS011;11075;47.944;11.776;2022-12-18T16:24:25;42.90;;;16.93;;
21825;SDS011;11075;47.944;11.776;2022-12-18T16:26:55;42.80;;;18.07;;
21825;SDS011;11075;47.944;11.776;2022-12-18T16:29:25;46.03;;;17.07;;
21825;SDS011;11075;47.944;11.776;2022-12-18T16:31:54;48.67;;;19.30;;
21825;SDS011;11075;47.944;11.776;2022-12-18T16:34:23;54.40;;;21.30;;
21825;SDS011;11075;47.944;11.776;2022-12-18T16:36:55;52.23;;;19.67;;